Time;durP1;ratioP1;P1;durP2;ratioP2;P2;SDS_P1;SDS_P2;PMS_P1;PMS_P2;Temp;Humidity;BMP_temperature;BMP_pressure;BME280_temperature;BME280_humidity;BME280_pressure;Samples;Min_cycle;Max_cycle;Signal;HPM_P1;HPM_P2
2022/05/17 00:01:12;;;;;;;18.83;7.72;;;15.30;99.90;;;;;;5067202;28;20099;-64
2022/05/17 00:03:37;;;;;;;19.30;8.32;;;15.30;99.90;;;;;;5083224;28;20066;-64
2022/05/17 00:06:05;;;;;;;17.60;7.68;;;15.20;99.90;;;;;;5091270;28;20045;-64
2022/05/17 00:08:32;;;;;;;18.80;7.95;;;15.30;99.90;;;;;;5083044;28;20040;-64
2022/05/17 00:10:58;;;;;;;19.85;8.25;;;15.30;99.90;;;;;;5082801;28;20048;-64
2022/05/17 00:13:24;;;;;;;20.08;7.50;;;15.30;99.90;;;;;;5067918;28;20096;-64
2022/05/17 00:15:54;;;;;;;18.60;7.80;;;15.30;99.90;;;;;;5085772;28;20050;-64
2022/05/17 00:18:21;;;;;;;;;;;15.10;99.90;;;;;;5067983;28;20088;-64
2022/05/17 00:20:47;;;;;;;19.50;7.53;;;15.20;99.90;;;;;;5081769;28;19920;-64
2022/05/17 00:23:15;;;;;;;26.05;8.63;;;15.10;99.90;;;;;;5083741;28;20049;-64
2022/05/17 00:25:42;;;;;;;19.63;7.65;;;15.10;99.90;;;;;;5067652;28;20052;-64
2022/05/17 00:28:08;;;;;;;16.83;7.35;;;15.00;99.90;;;;;;5089109;28;20043;-64
2022/05/17 00:30:34;;;;;;;19.05;6.70;;;15.10;99.90;;;;;;5055182;28;20075;-64
2022/05/17 00:33:00;;;;;;;18.92;7.28;;;15.00;99.90;;;;;;5082997;28;20044;-64
2022/05/17 00:35:26;;;;;;;20.35;7.70;;;15.00;99.90;;;;;;5085323;28;20123;-64
2022/05/17 00:37:52;;;;;;;22.10;6.63;;;15.00;99.90;;;;;;5067230;28;20064;-64
2022/05/17 00:40:18;;;;;;;21.98;8.70;;;15.00;99.90;;;;;;5064003;28;20059;-64
2022/05/17 00:42:44;;;;;;;21.52;7.93;;;14.90;99.90;;;;;;5094442;28;20043;-64
2022/05/17 00:45:10;;;;;;;16.27;6.97;;;15.00;99.90;;;;;;5063977;28;20044;-64
2022/05/17 00:47:50;;;;;;;17.17;7.82;;;14.90;99.90;;;;;;5068554;28;20053;-64
2022/05/17 00:50:29;;;;;;;22.98;7.38;;;14.90;99.90;;;;;;5053393;28;20179;-64
2022/05/17 00:53:12;;;;;;;20.45;8.18;;;15.00;99.90;;;;;;5065926;28;20099;-64
2022/05/17 00:55:52;;;;;;;16.85;6.70;;;14.90;99.90;;;;;;5082665;28;20062;-64
2022/05/17 00:58:30;;;;;;;19.35;7.63;;;14.90;99.90;;;;;;5056415;28;21149;-64
2022/05/17 01:01:09;;;;;;;16.10;7.28;;;15.00;99.90;;;;;;5066221;28;20048;-64
2022/05/17 01:03:52;;;;;;;20.92;8.00;;;14.90;99.90;;;;;;5083161;28;20080;-64
2022/05/17 01:06:19;;;;;;;18.05;7.57;;;15.00;99.90;;;;;;5059683;28;20080;-64
2022/05/17 01:08:44;;;;;;;22.70;8.00;;;14.80;99.90;;;;;;5066197;28;20424;-64
2022/05/17 01:11:10;;;;;;;20.92;8.23;;;14.90;99.90;;;;;;5067000;28;20064;-64
2022/05/17 01:16:25;;;;;;;20.48;9.43;;;14.90;99.90;;;;;;5081958;28;20079;-64
2022/05/17 01:18:51;;;;;;;21.25;9.68;;;14.70;99.90;;;;;;5065756;28;20044;-64
2022/05/17 01:21:17;;;;;;;19.83;8.70;;;14.70;99.90;;;;;;5059896;28;20068;-64
2022/05/17 01:23:43;;;;;;;26.23;10.57;;;14.60;99.90;;;;;;5084030;28;20041;-64
2022/05/17 01:26:15;;;;;;;19.02;9.35;;;14.70;99.90;;;;;;5048037;28;20101;-64
2022/05/17 01:28:40;;;;;;;21.90;11.10;;;14.60;99.90;;;;;;5065351;28;20040;-64
2022/05/17 01:31:06;;;;;;;23.05;10.82;;;14.60;99.90;;;;;;5074665;28;20128;-64
2022/05/17 01:33:34;;;;;;;28.48;11.15;;;14.70;99.90;;;;;;5087245;28;20048;-64
2022/05/17 01:36:02;;;;;;;23.02;11.30;;;14.60;99.90;;;;;;5085379;28;20119;-64
2022/05/17 01:38:29;;;;;;;19.15;10.57;;;14.60;99.90;;;;;;5086742;28;20076;-64
2022/05/17 01:40:55;;;;;;;24.27;11.18;;;14.60;99.90;;;;;;5073317;28;20109;-64
2022/05/17 01:43:21;;;;;;;23.48;12.15;;;14.60;99.90;;;;;;5050611;28;20087;-64
2022/05/17 01:45:47;;;;;;;20.50;12.13;;;14.60;99.90;;;;;;5068837;28;20044;-64
2022/05/17 01:48:12;;;;;;;25.88;11.75;;;14.60;99.90;;;;;;5051046;28;20040;-64
2022/05/17 01:50:38;;;;;;;21.67;12.07;;;14.50;99.90;;;;;;5087206;28;20045;-64
2022/05/17 01:53:04;;;;;;;26.25;12.35;;;14.60;99.90;;;;;;5090377;28;20039;-64
2022/05/17 01:55:30;;;;;;;23.80;12.52;;;14.50;99.90;;;;;;5068898;28;20049;-64
2022/05/17 01:57:56;;;;;;;25.10;12.25;;;14.40;99.90;;;;;;5083201;28;20040;-64
2022/05/17 02:00:23;;;;;;;22.30;12.55;;;14.40;99.90;;;;;;5066186;28;20062;-64
2022/05/17 02:02:50;;;;;;;26.35;11.70;;;14.40;99.90;;;;;;5100805;28;20082;-64
2022/05/17 02:05:17;;;;;;;21.02;12.00;;;14.50;99.90;;;;;;5068720;28;20048;-64
2022/05/17 02:07:43;;;;;;;23.77;12.00;;;14.30;99.90;;;;;;5084561;28;20099;-64
2022/05/17 02:10:10;;;;;;;21.63;11.88;;;14.20;99.90;;;;;;5068337;28;20040;-64
2022/05/17 02:12:36;;;;;;;23.63;11.80;;;14.30;99.90;;;;;;5049708;28;20040;-64
2022/05/17 02:15:04;;;;;;;23.02;12.18;;;14.30;99.90;;;;;;5086537;28;20055;-64
2022/05/17 02:17:30;;;;;;;24.25;12.43;;;14.30;99.90;;;;;;5066566;28;20036;-64
2022/05/17 02:19:56;;;;;;;24.55;11.57;;;14.30;99.90;;;;;;5064860;28;20041;-64
2022/05/17 02:22:22;;;;;;;25.33;12.65;;;14.30;99.90;;;;;;5080681;28;20531;-64
2022/05/17 02:24:48;;;;;;;20.60;12.32;;;14.30;99.90;;;;;;5086604;28;20041;-64
2022/05/17 02:27:13;;;;;;;23.50;12.80;;;14.20;99.90;;;;;;5086265;28;20079;-64
2022/05/17 02:29:39;;;;;;;23.65;12.18;;;14.20;99.90;;;;;;5067076;28;20044;-64
2022/05/17 02:32:05;;;;;;;24.10;12.15;;;14.10;99.90;;;;;;5067869;28;20048;-64
2022/05/17 02:34:31;;;;;;;24.80;12.52;;;14.30;99.90;;;;;;5085554;28;20080;-64
2022/05/17 02:36:57;;;;;;;22.70;12.05;;;14.20;99.90;;;;;;5083979;28;20092;-64
2022/05/17 02:39:23;;;;;;;22.35;12.93;;;14.10;99.90;;;;;;5087430;28;20060;-64
2022/05/17 02:41:49;;;;;;;29.73;13.18;;;14.20;99.90;;;;;;5085079;28;20047;-64
2022/05/17 02:44:14;;;;;;;21.33;11.68;;;14.10;99.90;;;;;;5063956;28;20045;-64
2022/05/17 02:46:40;;;;;;;29.70;12.43;;;14.20;99.90;;;;;;5084236;28;20088;-64
2022/05/17 02:49:09;;;;;;;18.60;11.70;;;14.10;99.90;;;;;;5085081;28;20040;-64
2022/05/17 02:51:34;;;;;;;27.50;12.40;;;14.10;99.90;;;;;;5068102;28;20304;-64
2022/05/17 02:54:01;;;;;;;22.88;12.38;;;14.10;99.90;;;;;;5063242;28;20056;-64
2022/05/17 02:56:26;;;;;;;23.80;11.90;;;14.10;99.90;;;;;;5066310;28;20127;-64
2022/05/17 02:58:52;;;;;;;24.90;12.18;;;14.10;99.90;;;;;;5085021;28;20044;-64
2022/05/17 03:01:18;;;;;;;26.38;12.25;;;14.00;99.90;;;;;;5084753;28;20046;-64
2022/05/17 03:03:43;;;;;;;25.05;12.00;;;14.00;99.90;;;;;;5068820;28;20041;-64
2022/05/17 03:06:10;;;;;;;26.90;12.80;;;14.00;99.90;;;;;;5090939;28;20032;-64
2022/05/17 03:08:36;;;;;;;23.58;11.43;;;13.80;99.90;;;;;;5068737;28;20044;-64
2022/05/17 03:11:02;;;;;;;31.52;12.50;;;14.00;99.90;;;;;;5067015;28;20049;-64
2022/05/17 03:13:28;;;;;;;28.60;11.60;;;13.80;99.90;;;;;;5067514;28;20043;-64
2022/05/17 03:15:54;;;;;;;19.65;11.43;;;13.70;99.90;;;;;;5046964;28;20045;-64
2022/05/17 03:18:20;;;;;;;23.63;11.50;;;13.70;99.90;;;;;;5063211;28;20058;-64
2022/05/17 03:20:48;;;;;;;26.73;12.50;;;13.70;99.90;;;;;;5066033;28;20044;-64
2022/05/17 03:23:14;;;;;;;24.13;11.23;;;13.70;99.90;;;;;;5067744;28;20639;-64
2022/05/17 03:25:39;;;;;;;23.77;11.40;;;13.70;99.90;;;;;;5066996;28;20071;-64
2022/05/17 03:28:05;;;;;;;22.45;11.65;;;13.70;99.90;;;;;;5082715;28;20051;-64
2022/05/17 03:30:32;;;;;;;25.42;11.43;;;13.60;99.90;;;;;;5084920;28;20119;-64
2022/05/17 03:32:57;;;;;;;21.40;11.55;;;13.60;99.90;;;;;;5065896;28;20041;-64
2022/05/17 03:35:23;;;;;;;31.85;12.35;;;13.60;99.90;;;;;;5072686;28;20122;-64
2022/05/17 03:37:49;;;;;;;22.08;12.38;;;13.70;99.90;;;;;;5084885;28;20056;-64
2022/05/17 03:40:14;;;;;;;22.23;11.77;;;13.60;99.90;;;;;;5067486;28;20083;-64
2022/05/17 03:42:40;;;;;;;23.30;12.10;;;13.60;99.90;;;;;;5066326;28;20082;-64
2022/05/17 03:45:07;;;;;;;29.30;11.43;;;13.70;99.90;;;;;;5077597;28;20067;-64
2022/05/17 03:47:33;;;;;;;23.88;10.63;;;13.60;99.90;;;;;;5069460;28;20523;-64
2022/05/17 03:49:59;;;;;;;25.90;11.18;;;13.70;99.90;;;;;;5084973;28;20037;-64
2022/05/17 03:52:26;;;;;;;22.40;10.20;;;13.60;99.90;;;;;;5062883;28;20056;-64
2022/05/17 03:54:57;;;;;;;23.42;11.23;;;13.50;99.90;;;;;;5079792;28;20037;-64
2022/05/17 03:57:27;;;;;;;26.17;11.40;;;13.60;99.90;;;;;;5083533;28;20151;-64
2022/05/17 03:59:54;;;;;;;23.88;10.88;;;13.40;99.90;;;;;;5067131;28;20044;-64
2022/05/17 04:02:20;;;;;;;25.08;10.88;;;13.60;99.90;;;;;;5067451;28;20061;-64
2022/05/17 04:04:46;;;;;;;20.20;10.48;;;13.50;99.90;;;;;;5067201;28;20080;-64
2022/05/17 04:07:12;;;;;;;22.25;11.32;;;13.40;99.90;;;;;;5098651;28;20511;-64
2022/05/17 04:09:39;;;;;;;28.10;12.05;;;13.50;99.90;;;;;;5070115;28;20036;-64
2022/05/17 04:12:05;;;;;;;20.42;10.85;;;13.50;99.90;;;;;;5082642;28;20095;-64
2022/05/17 04:14:31;;;;;;;21.90;10.88;;;13.60;99.90;;;;;;5084700;28;20059;-64
2022/05/17 04:16:57;;;;;;;23.38;11.38;;;13.60;99.90;;;;;;5074306;28;20049;-64
2022/05/17 04:19:23;;;;;;;26.60;12.30;;;13.60;99.90;;;;;;5083001;28;20079;-64
2022/05/17 04:21:49;;;;;;;25.58;12.65;;;13.50;99.90;;;;;;5065922;28;20033;-64
2022/05/17 04:24:15;;;;;;;22.15;10.88;;;13.60;99.90;;;;;;5083959;28;20047;-64
2022/05/17 04:26:41;;;;;;;21.92;11.05;;;13.70;99.90;;;;;;5084139;28;20036;-64
2022/05/17 04:29:07;;;;;;;19.55;10.80;;;13.60;99.90;;;;;;5084169;28;20052;-64
2022/05/17 04:31:33;;;;;;;18.33;10.68;;;13.80;99.90;;;;;;5068563;28;20060;-64
2022/05/17 04:33:59;;;;;;;20.92;9.95;;;13.80;99.90;;;;;;5066375;28;20045;-64
2022/05/17 04:36:25;;;;;;;23.60;11.98;;;13.80;99.90;;;;;;5069165;28;20056;-64
2022/05/17 04:38:52;;;;;;;23.45;12.80;;;13.80;99.90;;;;;;5083374;28;20048;-64
2022/05/17 04:41:18;;;;;;;24.70;12.00;;;13.90;99.90;;;;;;5083117;28;20523;-64
2022/05/17 04:43:44;;;;;;;20.52;11.05;;;13.90;99.90;;;;;;5084093;28;20463;-64
2022/05/17 04:46:10;;;;;;;20.75;11.77;;;13.90;99.90;;;;;;5065466;28;20090;-64
2022/05/17 04:48:37;;;;;;;22.02;11.85;;;14.00;99.90;;;;;;5084463;28;20052;-64
2022/05/17 04:51:11;;;;;;;24.05;10.38;;;14.00;99.90;;;;;;5064219;28;20061;-64
2022/05/17 04:53:38;;;;;;;22.85;10.68;;;14.20;99.90;;;;;;5071681;28;20053;-64
2022/05/17 04:56:08;;;;;;;22.73;11.20;;;14.30;99.90;;;;;;5065511;28;20037;-64
2022/05/17 04:58:35;;;;;;;25.23;11.88;;;14.30;99.90;;;;;;5065753;28;20049;-64
2022/05/17 05:01:02;;;;;;;23.42;11.25;;;14.40;99.90;;;;;;5083215;28;20040;-64
2022/05/17 05:03:28;;;;;;;21.27;11.23;;;14.40;99.90;;;;;;5067034;28;20053;-64
2022/05/17 05:05:54;;;;;;;25.35;11.43;;;14.40;99.90;;;;;;5059042;28;20044;-64
2022/05/17 05:08:20;;;;;;;23.55;12.55;;;14.40;99.90;;;;;;5087526;28;20045;-64
2022/05/17 05:10:45;;;;;;;22.88;11.95;;;14.50;99.90;;;;;;5085945;28;20047;-64
2022/05/17 05:13:15;;;;;;;25.10;11.93;;;14.50;99.90;;;;;;5069653;28;20074;-64
2022/05/17 05:15:41;;;;;;;28.40;16.45;;;14.60;99.90;;;;;;5031561;28;20056;-63
2022/05/17 05:18:07;;;;;;;17.08;10.63;;;14.60;99.90;;;;;;5067028;28;20040;-62
2022/05/17 05:20:34;;;;;;;25.90;11.38;;;14.60;99.90;;;;;;5045809;28;20059;-62
2022/05/17 05:23:00;;;;;;;19.55;10.80;;;14.60;99.90;;;;;;5052812;28;20072;-63
2022/05/17 05:25:26;;;;;;;24.10;11.57;;;14.60;99.90;;;;;;5060320;28;20052;-63
2022/05/17 05:27:53;;;;;;;18.75;11.20;;;14.60;99.90;;;;;;5054472;28;20052;-62
2022/05/17 05:30:19;;;;;;;21.83;10.65;;;14.70;99.90;;;;;;5069244;28;20056;-63
2022/05/17 05:32:46;;;;;;;21.83;10.80;;;14.70;99.90;;;;;;5081446;28;20063;-62
2022/05/17 05:35:15;;;;;;;19.08;10.77;;;14.70;99.90;;;;;;5072676;28;20059;-62
2022/05/17 05:37:41;;;;;;;23.17;10.80;;;14.70;99.90;;;;;;5079666;28;20123;-63
2022/05/17 05:40:09;;;;;;;21.00;10.57;;;14.70;99.90;;;;;;5049106;28;20051;-63
2022/05/17 05:42:35;;;;;;;20.00;10.55;;;14.90;99.90;;;;;;5054859;28;20049;-63
2022/05/17 05:45:01;;;;;;;17.02;10.90;;;14.80;99.90;;;;;;5068435;28;20131;-63
2022/05/17 05:47:27;;;;;;;18.77;9.90;;;15.00;99.90;;;;;;5060321;28;20197;-62
2022/05/17 05:49:53;;;;;;;22.33;11.30;;;15.00;99.90;;;;;;5068885;28;20056;-62
2022/05/17 06:08:06;;;;;;;19.60;16.92;;;15.50;99.90;;;;;;5803917;23;20073;-62
2022/05/17 06:10:32;;;;;;;22.73;9.45;;;15.40;99.90;;;;;;5020976;28;20536;-62
2022/05/17 06:12:57;;;;;;;22.95;11.13;;;15.60;99.90;;;;;;5002015;28;20062;-63
2022/05/17 06:15:23;;;;;;;22.65;10.77;;;15.50;99.90;;;;;;5004637;28;20181;-62
2022/05/17 06:17:49;;;;;;;18.98;8.50;;;15.70;99.90;;;;;;5011230;28;20033;-62
2022/05/17 06:20:16;;;;;;;19.67;9.00;;;15.80;99.90;;;;;;5036038;28;20050;-62
2022/05/17 06:22:42;;;;;;;18.85;9.50;;;15.70;99.90;;;;;;5050818;28;20053;-62
2022/05/17 06:25:09;;;;;;;18.35;8.68;;;15.70;99.90;;;;;;5021037;28;20106;-62
2022/05/17 06:27:34;;;;;;;16.92;10.13;;;15.80;99.90;;;;;;5035499;28;20068;-62
2022/05/17 06:30:00;;;;;;;16.70;8.48;;;15.70;99.90;;;;;;5002686;28;20069;-63
2022/05/17 06:32:26;;;;;;;19.60;8.90;;;15.90;99.90;;;;;;5025634;28;20116;-62
2022/05/17 06:34:51;;;;;;;15.50;9.23;;;15.90;99.90;;;;;;5020022;28;20050;-63
2022/05/17 06:37:17;;;;;;;16.00;8.30;;;15.90;99.90;;;;;;5009680;28;20483;-62
2022/05/17 06:39:43;;;;;;;13.60;8.32;;;16.00;99.90;;;;;;5002106;28;20061;-62
2022/05/17 06:42:09;;;;;;;22.75;9.10;;;16.10;99.90;;;;;;4992260;28;20058;-62
2022/05/17 06:44:39;;;;;;;19.10;8.93;;;16.20;99.90;;;;;;5042007;28;20033;-62
2022/05/17 06:47:08;;;;;;;18.05;8.57;;;16.20;99.90;;;;;;5016621;28;20049;-62
2022/05/17 06:49:37;;;;;;;17.90;9.30;;;16.20;99.90;;;;;;5058810;28;20120;-62
2022/05/17 06:52:03;;;;;;;19.75;8.82;;;16.20;99.90;;;;;;5033693;28;20061;-62
2022/05/17 06:54:29;;;;;;;14.20;8.95;;;16.40;99.90;;;;;;5039436;28;20049;-62
2022/05/17 06:56:55;;;;;;;15.90;8.35;;;16.40;99.90;;;;;;5034774;28;20041;-65
2022/05/17 06:59:22;;;;;;;19.17;8.43;;;16.50;99.90;;;;;;5038646;28;20530;-64
2022/05/17 07:01:49;;;;;;;17.35;8.93;;;16.50;99.90;;;;;;5032193;28;20049;-64
2022/05/17 07:04:16;;;;;;;17.10;8.80;;;16.60;99.90;;;;;;5031128;28;20046;-64
2022/05/17 07:06:41;;;;;;;18.67;8.55;;;16.70;99.90;;;;;;5017487;28;20117;-70
2022/05/17 07:09:07;;;;;;;13.57;7.57;;;16.70;99.90;;;;;;5015683;28;20080;-66
2022/05/17 07:14:18;;;;;;;19.83;8.07;;;16.70;99.90;;;;;;5023831;28;20119;-65
2022/05/17 07:16:43;;;;;;;15.90;8.05;;;16.70;99.90;;;;;;5034454;28;20112;-66
2022/05/17 07:19:10;;;;;;;15.02;8.10;;;16.80;99.90;;;;;;5021933;28;20053;-66
2022/05/17 07:21:36;;;;;;;18.13;8.23;;;16.90;99.90;;;;;;5025147;28;20057;-66
2022/05/17 07:24:01;;;;;;;15.07;8.05;;;17.00;99.90;;;;;;5033974;28;20045;-68
2022/05/17 07:26:27;;;;;;;16.42;8.60;;;17.00;99.90;;;;;;5023018;28;20069;-66
2022/05/17 07:28:53;;;;;;;16.08;8.90;;;17.20;99.90;;;;;;5018532;28;20433;-66
2022/05/17 07:31:18;;;;;;;13.38;8.10;;;17.00;99.90;;;;;;5010715;28;20065;-66
2022/05/17 07:33:44;;;;;;;18.50;9.10;;;17.10;99.90;;;;;;5016351;28;20050;-66
2022/05/17 07:36:11;;;;;;;13.30;8.73;;;17.10;99.90;;;;;;5011679;28;20038;-66
2022/05/17 07:38:38;;;;;;;20.48;10.10;;;17.20;99.90;;;;;;5052133;28;20045;-66
2022/05/17 07:41:04;;;;;;;19.50;9.07;;;17.20;99.90;;;;;;5012167;28;20041;-67
2022/05/17 07:43:30;;;;;;;13.63;7.38;;;17.30;99.90;;;;;;5034777;28;20095;-66
2022/05/17 07:45:56;;;;;;;24.33;9.75;;;17.40;99.90;;;;;;5035537;28;20042;-66
2022/05/17 07:48:25;;;;;;;14.23;9.00;;;17.40;99.90;;;;;;5023994;28;20053;-66
2022/05/17 07:50:52;;;;;;;19.98;8.73;;;17.50;99.90;;;;;;5035886;28;20042;-66
2022/05/17 07:53:19;;;;;;;16.52;8.15;;;17.50;99.90;;;;;;5042010;28;20095;-66
2022/05/17 07:55:46;;;;;;;15.80;8.73;;;17.60;99.90;;;;;;5036243;28;20045;-66
2022/05/17 07:58:13;;;;;;;18.20;8.80;;;17.40;99.90;;;;;;5011917;28;20195;-66
2022/05/17 08:00:40;;;;;;;14.50;7.78;;;17.70;99.90;;;;;;5035151;28;20061;-66
2022/05/17 08:03:08;;;;;;;16.13;7.88;;;17.60;99.90;;;;;;5024402;28;20057;-66
2022/05/17 08:05:35;;;;;;;14.55;7.38;;;17.60;99.90;;;;;;5019264;28;20056;-67
2022/05/17 08:08:02;;;;;;;15.60;7.22;;;17.80;99.90;;;;;;5040241;28;20060;-66
2022/05/17 08:10:28;;;;;;;12.50;6.13;;;17.90;99.90;;;;;;5020538;28;20118;-66
2022/05/17 08:12:54;;;;;;;18.25;6.38;;;18.00;99.90;;;;;;5010465;28;20057;-65
2022/05/17 08:15:23;;;;;;;15.00;7.22;;;18.00;99.90;;;;;;5004732;28;20180;-65
2022/05/17 08:17:49;;;;;;;14.02;6.72;;;18.00;99.90;;;;;;5017652;28;20082;-65
2022/05/17 08:20:15;;;;;;;11.02;5.93;;;18.10;99.90;;;;;;5021855;28;20049;-65
2022/05/17 08:22:43;;;;;;;16.10;5.85;;;18.10;99.90;;;;;;5023826;28;20041;-65
2022/05/17 08:28:03;;;;;;;10.35;6.10;;;18.20;99.90;;;;;;5011068;28;20137;-65
2022/05/17 08:30:30;;;;;;;14.95;6.20;;;18.20;99.90;;;;;;5028820;28;20045;-65
2022/05/17 08:33:20;;;;;;;9.98;5.22;;;18.20;99.90;;;;;;5015457;28;20057;-65
2022/05/17 08:36:04;;;;;;;10.63;4.80;;;18.20;99.90;;;;;;5013968;28;20480;-65
2022/05/17 08:38:43;;;;;;;10.85;5.18;;;18.50;99.90;;;;;;5015727;28;20137;-65
2022/05/17 08:41:41;;;;;;;12.67;4.80;;;18.60;99.90;;;;;;5010048;28;20430;-65
2022/05/17 08:44:14;;;;;;;17.77;6.03;;;18.50;99.90;;;;;;4994327;28;20107;-65
2022/05/17 08:47:01;;;;;;;12.13;4.63;;;18.90;99.90;;;;;;5016683;28;20051;-65
2022/05/17 08:49:31;;;;;;;11.25;3.60;;;18.80;99.90;;;;;;5028462;28;20076;-65
2022/05/17 08:52:17;;;;;;;13.30;4.45;;;18.80;99.90;;;;;;5014772;28;20053;-65
2022/05/17 08:55:22;;;;;;;12.90;5.22;;;18.80;99.90;;;;;;5030844;28;20053;-65
2022/05/17 08:57:54;;;;;;;10.50;4.85;;;18.80;99.90;;;;;;4993935;28;20053;-65
2022/05/17 09:00:30;;;;;;;12.85;5.32;;;18.80;99.90;;;;;;5030134;28;20069;-64
2022/05/17 09:03:09;;;;;;;12.52;5.50;;;18.90;99.90;;;;;;5008963;28;20049;-64
2022/05/17 09:05:57;;;;;;;10.60;4.38;;;18.90;99.90;;;;;;5050329;28;20053;-67
2022/05/17 09:08:41;;;;;;;9.52;3.60;;;19.10;99.90;;;;;;5041012;28;20057;-65
2022/05/17 09:11:21;;;;;;;7.88;3.45;;;19.20;99.90;;;;;;5013926;28;20536;-66
2022/05/17 09:14:04;;;;;;;8.27;4.20;;;19.40;99.90;;;;;;5009607;28;20289;-65
2022/05/17 09:16:37;;;;;;;12.32;4.38;;;19.50;99.90;;;;;;5017136;28;20448;-66
2022/05/17 09:19:03;;;;;;;11.40;4.13;;;19.90;99.90;;;;;;5047636;28;20107;-65
2022/05/17 09:21:33;;;;;;;10.25;4.10;;;20.10;99.90;;;;;;5003326;28;20053;-66
2022/05/17 09:24:07;;;;;;;8.15;3.17;;;20.00;99.90;;;;;;5032979;28;20043;-65
2022/05/17 09:26:34;;;;;;;10.07;3.63;;;19.80;99.90;;;;;;5025546;28;20041;-66
2022/05/17 09:29:16;;;;;;;8.77;3.08;;;19.70;99.90;;;;;;5048269;28;20056;-65
2022/05/17 09:31:53;;;;;;;11.23;3.50;;;19.80;99.90;;;;;;5015764;28;20493;-66
2022/05/17 09:34:34;;;;;;;8.55;2.95;;;19.80;99.90;;;;;;5027239;28;20073;-66
2022/05/17 09:37:19;;;;;;;8.38;2.78;;;20.10;99.90;;;;;;5011325;28;20045;-66
2022/05/17 09:39:49;;;;;;;7.80;2.92;;;20.20;99.90;;;;;;5043842;28;20085;-66
2022/05/17 09:42:33;;;;;;;10.30;3.30;;;20.10;99.90;;;;;;5032758;28;20538;-65
2022/05/17 09:45:07;;;;;;;7.90;3.05;;;20.10;99.90;;;;;;5038468;28;20076;-66
2022/05/17 09:47:41;;;;;;;9.43;2.97;;;20.20;99.90;;;;;;5007574;28;20046;-65
2022/05/17 09:53:10;;;;;;;7.93;3.33;;;20.60;99.90;;;;;;5026659;28;20160;-65
2022/05/17 09:55:37;;;;;;;6.60;2.30;;;20.70;99.90;;;;;;5027808;28;20050;-66
2022/05/17 09:58:10;;;;;;;8.00;3.08;;;20.70;99.90;;;;;;5024390;28;20064;-65
2022/05/17 10:00:42;;;;;;;7.43;2.67;;;20.90;99.90;;;;;;5047109;28;20558;-66
2022/05/17 10:03:46;;;;;;;5.88;2.45;;;20.90;99.90;;;;;;5012095;28;20049;-65
2022/05/17 10:06:27;;;;;;;7.32;2.95;;;20.90;99.90;;;;;;5005007;28;20064;-65
2022/05/17 10:09:09;;;;;;;8.23;3.15;;;20.80;99.90;;;;;;5027732;28;20483;-65
2022/05/17 10:11:58;;;;;;;7.82;2.28;;;20.90;99.90;;;;;;5030082;28;20099;-66
2022/05/17 10:14:43;;;;;;;6.68;2.35;;;20.90;99.90;;;;;;5018795;28;20065;-66
2022/05/17 10:17:36;;;;;;;4.95;2.03;;;21.00;99.90;;;;;;5007978;28;20391;-66
2022/05/17 10:20:10;;;;;;;7.95;2.63;;;21.10;99.90;;;;;;5022963;28;20438;-66
2022/05/17 10:22:56;;;;;;;7.03;2.70;;;21.20;99.90;;;;;;5017966;28;20045;-65
2022/05/17 10:25:44;;;;;;;8.48;2.70;;;21.20;99.90;;;;;;5023901;28;20101;-66
2022/05/17 10:28:22;;;;;;;8.18;3.42;;;21.30;99.90;;;;;;5023865;28;20048;-66
2022/05/17 10:31:00;;;;;;;6.60;2.60;;;21.40;99.90;;;;;;5019888;28;20140;-66
2022/05/17 10:33:39;;;;;;;7.75;2.80;;;21.40;99.90;;;;;;5020355;28;20524;-66
2022/05/17 10:36:07;;;;;;;;;;;21.50;99.90;;;;;;5043615;28;20045;-66
2022/05/17 10:38:38;;;;;;;7.35;2.63;;;21.40;99.90;;;;;;5010213;28;19931;-66
2022/05/17 10:41:09;;;;;;;5.95;2.60;;;21.50;99.90;;;;;;5020777;28;20049;-66
2022/05/17 10:43:38;;;;;;;6.13;2.58;;;21.50;99.90;;;;;;5042854;28;20052;-66
2022/05/17 10:46:04;;;;;;;6.15;2.47;;;21.70;99.90;;;;;;5019115;28;20137;-66
2022/05/17 10:48:57;;;;;;;7.43;2.58;;;21.80;99.90;;;;;;5010295;28;20069;-66
2022/05/17 10:51:50;;;;;;;7.93;2.70;;;21.90;99.90;;;;;;5017910;28;20064;-67
2022/05/17 10:54:21;;;;;;;5.95;2.33;;;21.90;99.90;;;;;;4992039;28;20057;-67
2022/05/17 10:57:11;;;;;;;6.75;2.38;;;22.20;99.90;;;;;;5010060;28;20038;-67
2022/05/17 10:59:43;;;;;;;8.52;2.63;;;22.50;99.90;;;;;;5032918;28;20125;-66
2022/05/17 11:02:31;;;;;;;8.60;2.90;;;22.60;99.90;;;;;;4992718;28;20057;-67
2022/05/17 11:04:59;;;;;;;7.55;2.60;;;22.60;99.90;;;;;;5029892;28;20041;-67
2022/05/17 11:07:42;;;;;;;5.85;2.63;;;22.50;99.90;;;;;;5016225;28;20045;-66
2022/05/17 11:10:30;;;;;;;5.88;2.55;;;22.40;99.90;;;;;;5028193;28;20049;-66
2022/05/17 11:13:18;;;;;;;7.28;2.97;;;22.40;99.90;;;;;;5036004;28;20397;-66
2022/05/17 11:16:00;;;;;;;7.80;2.50;;;22.10;99.90;;;;;;5012387;28;20057;-66
2022/05/17 11:18:48;;;;;;;5.63;2.83;;;22.10;99.90;;;;;;5006421;28;20080;-66
2022/05/17 11:21:39;;;;;;;5.15;2.67;;;22.20;99.90;;;;;;5004104;28;20046;-66
2022/05/17 11:24:20;;;;;;;6.95;2.92;;;22.20;99.90;;;;;;5020187;28;20053;-67
2022/05/17 11:27:06;;;;;;;14.68;3.13;;;22.20;99.90;;;;;;5017328;28;20051;-66
2022/05/17 11:29:44;;;;;;;8.27;2.80;;;22.20;99.90;;;;;;4990165;28;20042;-66
2022/05/17 11:32:27;;;;;;;5.88;2.60;;;22.20;99.90;;;;;;5021891;28;20267;-66
2022/05/17 11:34:55;;;;;;;6.88;3.10;;;22.20;99.90;;;;;;5046424;28;20049;-66
2022/05/17 11:37:33;;;;;;;6.70;2.75;;;22.20;99.90;;;;;;5028272;28;20052;-66
2022/05/17 11:40:40;;;;;;;8.25;2.92;;;22.30;99.90;;;;;;5044142;28;20049;-66
2022/05/17 11:45:53;;;;;;;9.70;3.00;;;22.20;99.90;;;;;;5036985;28;20045;-66
2022/05/17 11:48:44;;;;;;;6.38;2.80;;;22.30;99.90;;;;;;5005386;28;20140;-66
2022/05/17 11:51:10;;;;;;;5.63;2.10;;;22.50;99.90;;;;;;5019086;28;20049;-65
2022/05/17 11:53:48;;;;;;;7.97;2.83;;;22.60;99.90;;;;;;5024166;28;20056;-66
2022/05/17 11:56:19;;;;;;;6.45;2.72;;;22.80;99.90;;;;;;5033795;28;20049;-66
2022/05/17 11:58:50;;;;;;;9.15;2.95;;;23.00;99.90;;;;;;5037051;28;20099;-65
2022/05/17 12:01:31;;;;;;;8.15;2.97;;;23.00;99.90;;;;;;5036677;28;20049;-66
2022/05/17 12:04:20;;;;;;;19.35;4.45;;;23.00;99.90;;;;;;5007456;28;20053;-66
2022/05/17 12:06:49;;;;;;;7.05;2.67;;;23.00;99.90;;;;;;5015478;28;20045;-66
2022/05/17 12:09:20;;;;;;;8.63;2.80;;;23.20;99.90;;;;;;5009013;28;20049;-66
2022/05/17 12:12:03;;;;;;;7.15;2.35;;;23.40;99.90;;;;;;5034335;28;20115;-65
2022/05/17 12:14:39;;;;;;;8.38;3.13;;;23.20;99.90;;;;;;4974888;28;20073;-67
2022/05/17 12:17:14;;;;;;;8.40;3.40;;;23.30;99.90;;;;;;4998624;28;20056;-68
2022/05/17 12:20:01;;;;;;;7.22;3.22;;;23.40;99.90;;;;;;5034922;28;20041;-66
2022/05/17 12:22:58;;;;;;;9.30;2.83;;;23.50;99.90;;;;;;5025498;28;20049;-66
2022/05/17 12:25:35;;;;;;;9.73;3.25;;;23.60;99.90;;;;;;5017435;28;20104;-67
2022/05/17 12:28:01;;;;;;;7.85;2.92;;;23.40;99.90;;;;;;5016373;28;20554;-73
2022/05/17 12:30:53;;;;;;;10.23;2.92;;;23.40;99.90;;;;;;5029153;28;20573;-72
2022/05/17 12:33:28;;;;;;;9.63;3.63;;;23.40;99.90;;;;;;5040304;28;20053;-64
2022/05/17 12:36:10;;;;;;;8.77;3.03;;;23.50;99.90;;;;;;5052531;28;20123;-65
2022/05/17 12:44:12;;;;;;;9.65;3.72;;;23.80;99.90;;;;;;5022479;28;20072;-65
2022/05/17 12:46:39;;;;;;;9.15;3.60;;;23.80;99.90;;;;;;5053842;28;20041;-65
2022/05/17 12:49:23;;;;;;;10.40;3.97;;;23.90;99.90;;;;;;5025090;28;20080;-65
2022/05/17 12:52:09;;;;;;;11.30;3.20;;;23.90;99.90;;;;;;5018547;28;20056;-66
2022/05/17 12:54:35;;;;;;;13.15;3.63;;;24.00;99.90;;;;;;4987221;28;20081;-65
2022/05/17 12:57:19;;;;;;;9.95;3.90;;;24.00;99.90;;;;;;5018381;28;20044;-65
2022/05/17 12:59:45;;;;;;;9.57;3.80;;;24.10;99.90;;;;;;4989896;28;20536;-66
2022/05/17 13:02:10;;;;;;;11.82;4.25;;;24.10;99.90;;;;;;5031694;28;20041;-67
2022/05/17 13:04:37;;;;;;;8.52;3.35;;;24.20;99.90;;;;;;5046834;28;20045;-65
2022/05/17 13:07:20;;;;;;;10.85;3.75;;;24.10;99.90;;;;;;5015986;28;20057;-66
2022/05/17 13:10:03;;;;;;;11.05;3.63;;;24.00;99.90;;;;;;5008845;28;20046;-66
2022/05/17 13:12:35;;;;;;;13.20;4.15;;;24.00;99.90;;;;;;4993200;28;20353;-66
2022/05/17 13:15:09;;;;;;;12.32;4.60;;;24.10;99.90;;;;;;5045443;28;20559;-66
2022/05/17 13:17:38;;;;;;;10.50;5.00;;;24.00;99.90;;;;;;5012128;28;20100;-66
2022/05/17 13:20:31;;;;;;;7.55;3.80;;;24.10;99.90;;;;;;5048854;28;20041;-66
2022/05/17 13:22:57;;;;;;;14.13;4.55;;;24.10;99.90;;;;;;5000248;28;20057;-66
2022/05/17 13:25:31;;;;;;;13.68;4.78;;;24.10;99.90;;;;;;5023872;28;20057;-65
2022/05/17 13:27:56;;;;;;;10.50;4.53;;;24.20;99.90;;;;;;5013689;28;20045;-66
2022/05/17 13:30:37;;;;;;;8.45;3.55;;;24.20;99.90;;;;;;5017410;28;20110;-66